Garden City Regional Airport
KGCK : now visible

Airfield :











YOU CAN JOIN US ON...

 
LOGIN :

Register | Disclaimer

   EN    FR    IT 

 









Legend :    VFR   Marginal VFR   IFR   Intensive IFR   Very Intensive IFR
Visi :
Ceiling :
>= 8 km
>= 3000ft
5 to 8 km
1000 to 3000 ft
1500m to 5 km
500 to 1000 ft
800 to 1500m
200 to 500 ft
< 800m
< 200 ft
Symbols :   Thunderstorms  Fog  Heavy snow  Heavy precipitations  Wind > 20 kt






- Airport Elevation : 2891 ft
- IATA code : GCK


KGCK - Garden City Regional

CURRENT METAR :
  • 192254Z 16013KT 10SM CLR 21/M01 A2973 RMK AO2 SLP057 T02061006

EXPIRED METARs :
  • 192154Z 18017G25KT 10SM CLR 22/00 A2973 RMK AO2 PK WND 21027/2131 SLP056 T02220000
  • 192054Z 18016G28KT 10SM CLR 22/01 A2974 RMK AO2 PK WND 19031/1955 SLP061 T02170006 56030
  • 191954Z 19023G30KT 10SM CLR 22/02 A2976 RMK AO2 PK WND 20032/1940 SLP066 T02220017

TAF KGCK
Valid from the 19 at 18:00 until the 20 at 18:00 UTC


191720Z 1918/2018 17015G25KT P6SM SKC
FM192300 15015KT P6SM SKC
FM200800 16012KT P6SM FEW250
FM201500 17015KT P6SM OVC120



MET'MAP, your aeronautical weather chart ! - Copyright ORBIFLY December 2007 - Disclaimer

ORBIFLY MET'MAP TEAM :

Programming & Development : Alexandra Zaïnal
Concept & Development : Baudouin d'Aumeries
Co-Development & Prog : Marc-Olivier Méhu
Technical & hardware support : Manuel Goepfert

Contact : metmap@orbifly.com




SOURCES & CREDITS :

   NOAA       Earth
Advisory